Time;durP1;ratioP1;P1;durP2;ratioP2;P2;SDS_P1;SDS_P2;PMS_P1;PMS_P2;Temp;Humidity;BMP_temperature;BMP_pressure;BME280_temperature;BME280_humidity;BME280_pressure;Samples;Min_cycle;Max_cycle;Signal;HPM_P1;HPM_P2
2023/06/10 00:00:05;;;;;;;;;;;;;;;15.26;100.00;99184.81;5034352;28;914;-55
2023/06/10 00:02:31;;;;;;;;;;;;;;;15.24;100.00;99186.47;5034288;28;875;-55
2023/06/10 00:04:58;;;;;;;;;;;;;;;15.16;100.00;99185.94;5034286;28;1952;-54
2023/06/10 00:07:25;;;;;;;;;;;;;;;15.06;100.00;99189.84;5034458;28;905;-54
2023/06/10 00:09:52;;;;;;;;;;;;;;;15.01;100.00;99182.06;5034380;28;887;-54
2023/06/10 00:12:20;;;;;;;;;;;;;;;14.97;100.00;99184.19;5033674;28;1211;-54
2023/06/10 00:14:50;;;;;;;;;;;;;;;14.94;100.00;99180.31;5033995;28;929;-53
2023/06/10 00:17:17;;;;;;;;;;;;;;;14.94;100.00;99174.75;5032837;28;937;-54
2023/06/10 00:19:46;;;;;;;;;;;;;;;14.94;100.00;99177.53;5033994;28;894;-53
2023/06/10 00:22:13;;;;;;;;;;;;;;;14.97;100.00;99178.63;5033855;28;899;-54
2023/06/10 00:24:41;;;;;;;;;;;;;;;14.97;100.00;99173.06;5034111;28;1913;-55
2023/06/10 00:27:10;;;;;;;;;;;;;;;14.94;100.00;99166.38;5033608;28;903;-53
2023/06/10 00:29:38;;;;;;;;;;;;;;;14.90;100.00;99168.50;5033858;28;831;-54
2023/06/10 00:32:05;;;;;;;;;;;;;;;14.87;100.00;99180.53;5033732;28;931;-54
2023/06/10 00:34:32;;;;;;;;;;;;;;;14.85;100.00;99177.41;5033077;28;800;-54
2023/06/10 00:36:59;;;;;;;;;;;;;;;14.84;100.00;99173.84;5033120;28;894;-54
2023/06/10 00:39:25;;;;;;;;;;;;;;;14.82;100.00;99175.53;5033810;28;832;-51
2023/06/10 00:41:52;;;;;;;;;;;;;;;14.77;100.00;99176.09;5033607;28;883;-54
2023/06/10 00:44:18;;;;;;;;;;;;;;;14.70;100.00;99177.09;5033389;28;1886;-54
2023/06/10 00:46:46;;;;;;;;;;;;;;;14.62;100.00;99173.75;5033504;28;874;-52
2023/06/10 00:49:13;;;;;;;;;;;;;;;14.57;100.00;99174.31;5033336;28;871;-53
2023/06/10 00:51:40;;;;;;;;;;;;;;;14.57;100.00;99176.31;5033407;28;864;-54
2023/06/10 00:54:07;;;;;;;;;;;;;;;14.54;100.00;99180.75;5033328;28;922;-53
2023/06/10 00:56:34;;;;;;;;;;;;;;;14.49;100.00;99173.72;5033236;28;828;-53
2023/06/10 00:59:01;;;;;;;;;;;;;;;14.44;100.00;99173.50;5033207;28;872;-53
2023/06/10 01:01:29;;;;;;;;;;;;;;;14.38;100.00;99176.06;5033166;28;832;-54
2023/06/10 01:03:58;;;;;;;;;;;;;;;14.34;100.00;99182.94;5033063;28;1890;-55
2023/06/10 01:06:58;;;;;;;;;;;;;;;14.34;100.00;99171.81;5033159;28;844;-54
2023/06/10 01:09:33;;;;;;;;;;;;;;;14.30;100.00;99178.28;4989704;28;1288;-53
2023/06/10 01:12:22;;;;;;;;;;;;;;;14.29;100.00;99178.72;5032818;28;1454;-53
2023/06/10 01:14:50;;;;;;;;;;;;;;;14.32;100.00;99175.06;5022544;28;1812;-53
2023/06/10 01:17:17;;;;;;;;;;;;;;;14.31;100.00;99173.50;5033155;28;1178;-53
2023/06/10 01:19:44;;;;;;;;;;;;;;;14.28;100.00;99163.28;5033818;28;816;-53
2023/06/10 01:22:16;;;;;;;;;;;;;;;14.25;100.00;99173.28;5032876;28;820;-54
2023/06/10 01:24:43;;;;;;;;;;;;;;;14.26;100.00;99162.94;5032753;28;1910;-55
2023/06/10 01:27:13;;;;;;;;;;;;;;;14.33;100.00;99164.72;5032577;28;832;-55
2023/06/10 01:29:45;;;;;;;;;;;;;;;14.40;100.00;99153.38;5032664;28;836;-54
2023/06/10 01:32:15;;;;;;;;;;;;;;;14.44;100.00;99154.03;5032542;28;883;-54
2023/06/10 01:34:43;;;;;;;;;;;;;;;14.49;100.00;99164.63;5032570;28;800;-54
2023/06/10 01:37:12;;;;;;;;;;;;;;;14.53;100.00;99156.16;5032424;28;942;-54
2023/06/10 01:39:39;;;;;;;;;;;;;;;14.54;100.00;99154.94;5032434;28;829;-53
2023/06/10 01:42:06;;;;;;;;;;;;;;;14.49;100.00;99153.50;5032376;28;903;-54
2023/06/10 01:44:33;;;;;;;;;;;;;;;14.45;100.00;99159.16;5032263;28;1886;-54
2023/06/10 01:46:59;;;;;;;;;;;;;;;14.41;100.00;99157.72;5032018;28;816;-54
2023/06/10 01:49:28;;;;;;;;;;;;;;;14.40;100.00;99158.94;5032500;28;923;-54
2023/06/10 01:51:55;;;;;;;;;;;;;;;14.34;100.00;99161.50;5032272;28;891;-54
2023/06/10 01:54:21;;;;;;;;;;;;;;;14.32;100.00;99166.72;5030745;28;1192;-55
2023/06/10 01:56:48;;;;;;;;;;;;;;;14.30;100.00;99166.38;5032243;28;883;-54
2023/06/10 01:59:14;;;;;;;;;;;;;;;14.25;100.00;99166.91;5032066;28;808;-55
2023/06/10 02:01:40;;;;;;;;;;;;;;;14.24;100.00;99163.38;5032036;28;946;-53
2023/06/10 02:04:07;;;;;;;;;;;;;;;14.20;100.00;99161.91;5031935;28;1975;-54
2023/06/10 02:06:35;;;;;;;;;;;;;;;14.19;100.00;99161.16;5032001;28;859;-54
2023/06/10 02:09:01;;;;;;;;;;;;;;;14.19;100.00;99163.94;5031914;28;970;-54
2023/06/10 02:11:28;;;;;;;;;;;;;;;14.17;100.00;99154.47;5031845;28;1213;-54
2023/06/10 02:13:54;;;;;;;;;;;;;;;14.15;100.00;99152.13;5031857;28;871;-54
2023/06/10 02:16:21;;;;;;;;;;;;;;;14.14;100.00;99149.78;5031828;28;856;-54
2023/06/10 02:18:48;;;;;;;;;;;;;;;14.15;100.00;99138.25;5031817;28;894;-53
2023/06/10 02:21:15;;;;;;;;;;;;;;;14.14;100.00;99145.00;5031721;28;844;-54
2023/06/10 02:23:42;;;;;;;;;;;;;;;14.15;100.00;99140.25;5031626;28;1918;-54
2023/06/10 02:26:08;;;;;;;;;;;;;;;14.09;100.00;99138.00;5031725;28;914;-54
2023/06/10 02:28:35;;;;;;;;;;;;;;;14.04;100.00;99137.78;5031710;28;816;-54
2023/06/10 02:31:01;;;;;;;;;;;;;;;13.99;100.00;99138.31;5031904;28;832;-54
2023/06/10 02:33:28;;;;;;;;;;;;;;;13.92;100.00;99135.75;5031608;28;859;-54
2023/06/10 02:35:55;;;;;;;;;;;;;;;13.83;100.00;99144.75;5031625;28;820;-53
2023/06/10 02:38:22;;;;;;;;;;;;;;;13.77;100.00;99140.94;5031528;28;859;-54
2023/06/10 02:40:49;;;;;;;;;;;;;;;13.72;100.00;99139.50;5031683;28;929;-54
2023/06/10 02:43:15;;;;;;;;;;;;;;;13.70;100.00;99141.94;5031455;28;1957;-54
2023/06/10 02:45:42;;;;;;;;;;;;;;;13.72;100.00;99144.25;5031419;28;864;-55
2023/06/10 02:48:09;;;;;;;;;;;;;;;13.73;100.00;99143.81;5031479;28;898;-55
2023/06/10 02:50:35;;;;;;;;;;;;;;;13.74;100.00;99142.63;5031414;28;867;-55
2023/06/10 02:53:02;;;;;;;;;;;;;;;13.81;100.00;99158.28;5030014;28;1397;-54
2023/06/10 02:55:29;;;;;;;;;;;;;;;13.84;100.00;99147.06;5031287;28;852;-54
2023/06/10 02:57:56;;;;;;;;;;;;;;;13.88;100.00;99146.97;5031416;28;915;-54
2023/06/10 03:00:22;;;;;;;;;;;;;;;13.90;100.00;99141.75;5035427;28;879;-54
2023/06/10 03:02:48;;;;;;;;;;;;;;;13.94;100.00;99147.22;5035411;28;859;-53
2023/06/10 03:05:16;;;;;;;;;;;;;;;13.95;100.00;99143.97;5035524;28;1941;-55
2023/06/10 03:07:43;;;;;;;;;;;;;;;13.94;100.00;99142.44;5035325;28;886;-54
2023/06/10 03:10:10;;;;;;;;;;;;;;;13.97;100.00;99140.75;5035528;28;976;-55
2023/06/10 03:12:37;;;;;;;;;;;;;;;14.01;100.00;99144.22;5034902;28;1387;-55
2023/06/10 03:15:04;;;;;;;;;;;;;;;14.09;100.00;99149.13;5035208;28;899;-54
2023/06/10 03:17:31;;;;;;;;;;;;;;;14.17;100.00;99148.94;5035091;28;872;-55
2023/06/10 03:19:58;;;;;;;;;;;;;;;14.24;100.00;99143.13;5035307;28;922;-54
2023/06/10 03:22:25;;;;;;;;;;;;;;;14.34;100.00;99138.47;5035057;28;895;-55
2023/06/10 03:24:51;;;;;;;;;;;;;;;14.41;100.00;99141.03;5034816;28;1917;-53
2023/06/10 03:27:18;;;;;;;;;;;;;;;14.48;100.00;99143.59;5035000;28;820;-54
2023/06/10 03:29:45;;;;;;;;;;;;;;;14.52;100.00;99144.25;5034868;28;907;-54
2023/06/10 03:32:11;;;;;;;;;;;;;;;14.58;100.00;99147.28;5035077;28;827;-54
2023/06/10 03:34:38;;;;;;;;;;;;;;;14.64;100.00;99151.06;5034701;28;958;-55
2023/06/10 03:37:05;;;;;;;;;;;;;;;14.73;100.00;99142.81;5034778;28;863;-55
2023/06/10 03:39:32;;;;;;;;;;;;;;;14.83;100.00;99146.47;5034632;28;1241;-54
2023/06/10 03:41:59;;;;;;;;;;;;;;;14.90;100.00;99144.25;5034719;28;844;-55
2023/06/10 03:44:26;;;;;;;;;;;;;;;15.00;100.00;99145.13;5034689;28;1952;-55
2023/06/10 03:46:53;;;;;;;;;;;;;;;15.09;100.00;99148.00;5034602;28;832;-55
2023/06/10 03:49:20;;;;;;;;;;;;;;;15.18;100.00;99141.72;5034636;28;820;-54
2023/06/10 03:51:47;;;;;;;;;;;;;;;15.28;100.00;99142.59;5034473;28;875;-55
2023/06/10 03:54:13;;;;;;;;;;;;;;;15.41;100.00;99146.09;5034367;28;816;-55
2023/06/10 03:56:40;;;;;;;;;;;;;;;15.55;100.00;99146.81;5034426;28;980;-55
2023/06/10 03:59:06;;;;;;;;;;;;;;;15.70;100.00;99150.66;5034333;28;844;-55
2023/06/10 04:01:33;;;;;;;;;;;;;;;15.88;100.00;99138.91;5034321;28;816;-55
2023/06/10 04:04:01;;;;;;;;;;;;;;;16.11;100.00;99143.97;5034277;28;1886;-55
2023/06/10 04:06:28;;;;;;;;;;;;;;;16.35;100.00;99151.84;5034175;28;820;-54
2023/06/10 04:08:56;;;;;;;;;;;;;;;16.56;100.00;99147.44;5032820;28;1290;-55
2023/06/10 04:11:23;;;;;;;;;;;;;;;16.65;100.00;99146.69;5034007;28;1366;-55
2023/06/10 04:13:50;;;;;;;;;;;;;;;16.72;100.00;99143.59;5034070;28;840;-55
2023/06/10 04:16:17;;;;;;;;;;;;;;;16.85;100.00;99132.34;5034140;28;859;-54
2023/06/10 04:18:43;;;;;;;;;;;;;;;16.96;100.00;99131.91;5033972;28;876;-55
2023/06/10 04:21:10;;;;;;;;;;;;;;;17.09;100.00;99133.34;5033965;28;1050;-55
2023/06/10 04:23:38;;;;;;;;;;;;;;;17.22;100.00;99135.19;5033909;28;1973;-54
2023/06/10 04:26:05;;;;;;;;;;;;;;;17.33;100.00;99133.50;5033824;28;855;-55
2023/06/10 04:28:32;;;;;;;;;;;;;;;17.40;100.00;99126.81;5034071;28;989;-56
2023/06/10 04:30:59;;;;;;;;;;;;;;;17.42;100.00;99141.09;5033792;28;824;-55
2023/06/10 04:33:26;;;;;;;;;;;;;;;17.45;100.00;99136.59;5033800;28;871;-55
2023/06/10 04:35:52;;;;;;;;;;;;;;;17.52;100.00;99133.50;5033685;28;870;-55
2023/06/10 04:38:19;;;;;;;;;;;;;;;17.55;100.00;99130.53;5033703;28;816;-55
2023/06/10 04:40:46;;;;;;;;;;;;;;;17.53;100.00;99129.47;5033593;28;816;-55
2023/06/10 04:43:13;;;;;;;;;;;;;;;17.58;100.00;99134.44;5033581;28;906;-55
2023/06/10 04:45:39;;;;;;;;;;;;;;;17.74;100.00;99133.31;5033495;28;1955;-55
2023/06/10 04:48:07;;;;;;;;;;;;;;;17.97;100.00;99133.94;5033524;28;871;-55
2023/06/10 04:50:34;;;;;;;;;;;;;;;18.14;100.00;99141.50;5033452;28;891;-55
2023/06/10 04:53:00;;;;;;;;;;;;;;;18.32;100.00;99142.69;5033321;28;816;-53
2023/06/10 04:55:28;;;;;;;;;;;;;;;18.46;100.00;99139.22;5033375;28;866;-55
2023/06/10 04:57:54;;;;;;;;;;;;;;;18.67;100.00;99136.63;5033322;28;827;-54
2023/06/10 05:00:21;;;;;;;;;;;;;;;18.96;100.00;99138.81;5033308;28;864;-55
2023/06/10 05:02:51;;;;;;;;;;;;;;;19.08;100.00;99139.84;5033132;28;879;-54
2023/06/10 05:05:18;;;;;;;;;;;;;;;19.27;100.00;99137.69;5033128;28;1882;-55
2023/06/10 05:07:45;;;;;;;;;;;;;;;19.46;100.00;99138.31;5033131;28;863;-54
2023/06/10 05:10:12;;;;;;;;;;;;;;;19.65;100.00;99138.91;5033291;28;994;-55
2023/06/10 05:12:39;;;;;;;;;;;;;;;19.83;100.00;99135.97;5031441;28;2205;-53
2023/06/10 05:15:06;;;;;;;;;;;;;;;20.02;100.00;99141.41;5032971;28;823;-54
2023/06/10 05:17:34;;;;;;;;;;;;;;;20.11;100.00;99133.66;5033090;28;855;-53
2023/06/10 05:20:02;;;;;;;;;;;;;;;20.22;100.00;99132.31;5032853;28;793;-53
2023/06/10 05:22:30;;;;;;;;;;;;;;;20.36;100.00;99139.94;5032071;28;1169;-53
2023/06/10 05:24:57;;;;;;;;;;;;;;;20.53;100.00;99137.41;5032648;28;1984;-51
2023/06/10 05:27:24;;;;;;;;;;;;;;;20.86;100.00;99136.34;5032735;28;886;-53
2023/06/10 05:29:51;;;;;;;;;;;;;;;21.30;100.00;99126.97;5032841;28;840;-54
2023/06/10 05:32:17;;;;;;;;;;;;;;;21.67;100.00;99126.38;5032533;28;892;-53
2023/06/10 05:34:44;;;;;;;;;;;;;;;21.94;100.00;99127.91;5032842;28;892;-54
2023/06/10 05:37:11;;;;;;;;;;;;;;;22.15;100.00;99129.38;5032740;28;828;-54
2023/06/10 05:39:37;;;;;;;;;;;;;;;22.34;100.00;99127.00;5032557;28;872;-53
2023/06/10 05:42:06;;;;;;;;;;;;;;;22.66;100.00;99126.97;5032421;28;820;-53
2023/06/10 05:44:33;;;;;;;;;;;;;;;23.00;100.00;99124.31;5032288;28;1941;-53
2023/06/10 05:47:00;;;;;;;;;;;;;;;23.36;100.00;99124.75;5032380;28;835;-54
2023/06/10 05:49:27;;;;;;;;;;;;;;;23.60;100.00;99127.16;5032333;28;875;-53
2023/06/10 05:51:55;;;;;;;;;;;;;;;23.83;100.00;99123.13;5032156;28;873;-51
2023/06/10 05:54:22;;;;;;;;;;;;;;;24.10;100.00;99120.81;5032228;28;875;-53
2023/06/10 05:56:49;;;;;;;;;;;;;;;24.60;97.21;99125.72;5032308;28;911;-53
2023/06/10 05:59:16;;;;;;;;;;;;;;;25.29;92.80;99127.06;5032109;28;859;-53
2023/06/10 06:01:42;;;;;;;;;;;;;;;26.11;89.71;99130.44;5032082;28;958;-52
2023/06/10 06:04:09;;;;;;;;;;;;;;;27.07;82.21;99121.78;5031967;28;1881;-52
2023/06/10 06:06:38;;;;;;;;;;;;;;;27.74;72.42;99117.34;5032052;28;824;-53
2023/06/10 06:09:05;;;;;;;;;;;;;;;28.21;67.14;99119.72;5031976;28;835;-54
2023/06/10 06:11:33;;;;;;;;;;;;;;;28.45;61.76;99109.50;5031968;28;1237;-52
2023/06/10 06:14:00;;;;;;;;;;;;;;;28.76;58.25;99107.91;5030612;28;1527;-52
2023/06/10 06:16:26;;;;;;;;;;;;;;;28.93;54.30;99116.09;5031884;28;847;-54
2023/06/10 06:18:53;;;;;;;;;;;;;;;28.89;51.73;99110.75;5031846;28;864;-52
2023/06/10 06:21:19;;;;;;;;;;;;;;;28.82;49.33;99108.56;5031615;28;892;-54
2023/06/10 06:23:46;;;;;;;;;;;;;;;28.90;49.19;99108.69;5031654;28;1918;-51
2023/06/10 06:26:13;;;;;;;;;;;;;;;28.98;48.07;99108.81;5031707;28;821;-53
2023/06/10 06:28:39;;;;;;;;;;;;;;;28.81;49.28;99112.72;5031673;28;836;-53
2023/06/10 06:31:07;;;;;;;;;;;;;;;29.03;48.20;99105.81;5031656;28;835;-54
2023/06/10 06:33:32;;;;;;;;;;;;;;;29.28;46.87;99099.94;5030736;28;880;-54
2023/06/10 06:36:02;;;;;;;;;;;;;;;29.33;46.36;99099.03;5031519;28;901;-54
2023/06/10 06:38:28;;;;;;;;;;;;;;;29.79;45.73;99095.97;5031523;28;886;-55
2023/06/10 06:40:55;;;;;;;;;;;;;;;30.37;43.70;99102.59;5031817;28;808;-56
2023/06/10 06:43:21;;;;;;;;;;;;;;;30.56;42.92;99096.66;5030286;28;1270;-55
2023/06/10 06:45:48;;;;;;;;;;;;;;;30.79;42.57;99103.28;5031515;28;875;-55
2023/06/10 06:48:15;;;;;;;;;;;;;;;30.65;41.48;99096.91;5031512;28;816;-55
2023/06/10 06:50:42;;;;;;;;;;;;;;;30.70;40.95;99093.16;5031336;28;839;-55
2023/06/10 06:53:08;;;;;;;;;;;;;;;30.46;40.88;99096.38;5031434;28;883;-56
2023/06/10 06:55:35;;;;;;;;;;;;;;;30.59;41.32;99090.59;5031722;28;922;-55
2023/06/10 06:58:03;;;;;;;;;;;;;;;31.47;40.49;99090.72;5031337;28;828;-55
2023/06/10 07:00:30;;;;;;;;;;;;;;;32.04;38.17;99089.69;5030120;28;766;-55
2023/06/10 07:02:56;;;;;;;;;;;;;;;32.16;36.27;99095.81;5031458;28;887;-55
2023/06/10 07:05:26;;;;;;;;;;;;;;;32.38;36.38;99091.41;5031180;28;1945;-55
2023/06/10 07:07:55;;;;;;;;;;;;;;;32.49;35.60;99093.88;5031519;28;941;-55
2023/06/10 07:10:22;;;;;;;;;;;;;;;32.98;35.32;99094.03;5031303;28;950;-55
2023/06/10 07:12:49;;;;;;;;;;;;;;;32.71;33.86;99091.59;5030968;28;1210;-55
2023/06/10 07:15:15;;;;;;;;;;;;;;;31.98;35.68;99088.34;5031363;28;836;-54
2023/06/10 07:17:42;;;;;;;;;;;;;;;31.57;35.99;99095.88;5030055;28;895;-54
2023/06/10 07:20:09;;;;;;;;;;;;;;;32.04;36.04;99095.41;5031047;28;914;-56
2023/06/10 07:22:36;;;;;;;;;;;;;;;32.14;35.79;99096.38;5031117;28;875;-54
2023/06/10 07:25:02;;;;;;;;;;;;;;;31.74;35.65;99096.09;5031033;28;1914;-54
2023/06/10 07:27:28;;;;;;;;;;;;;;;31.66;36.05;99090.38;5031098;28;819;-55
2023/06/10 07:29:55;;;;;;;;;;;;;;;31.72;35.92;99090.94;5031035;28;853;-54
2023/06/10 07:32:23;;;;;;;;;;;;;;;32.02;35.79;99086.66;5031026;28;851;-53
2023/06/10 07:34:50;;;;;;;;;;;;;;;32.71;34.83;99098.09;5031030;28;855;-54
2023/06/10 07:37:17;;;;;;;;;;;;;;;33.19;33.34;99088.06;5029706;28;1238;-55
2023/06/10 07:39:43;;;;;;;;;;;;;;;33.15;33.11;99097.03;5031093;28;875;-53
2023/06/10 07:42:09;;;;;;;;;;;;;;;32.81;34.20;99081.09;5030942;28;874;-53
2023/06/10 07:44:36;;;;;;;;;;;;;;;33.30;32.98;99084.75;5031833;28;1952;-53
2023/06/10 07:47:03;;;;;;;;;;;;;;;33.55;32.29;99084.84;5034956;28;808;-53
2023/06/10 07:49:30;;;;;;;;;;;;;;;33.72;32.19;99082.09;5034545;28;875;-55
2023/06/10 08:04:07;;;;;;;;;;;;;;;34.45;28.96;99100.47;5034584;28;1894;-48
2023/06/10 08:06:33;;;;;;;;;;;;;;;34.25;29.35;99097.41;5034463;28;947;-52
2023/06/10 08:09:00;;;;;;;;;;;;;;;33.55;28.90;99099.91;5034221;28;843;-49
2023/06/10 08:11:30;;;;;;;;;;;;;;;32.70;29.65;99104.38;5032873;28;1215;-49
2023/06/10 08:13:56;;;;;;;;;;;;;;;32.23;31.22;99095.03;5034237;28;836;-52
2023/06/10 08:16:23;;;;;;;;;;;;;;;32.06;32.54;99097.72;5034058;28;813;-52
2023/06/10 08:18:50;;;;;;;;;;;;;;;32.73;31.13;99086.06;5034038;28;887;-53
2023/06/10 08:21:17;;;;;;;;;;;;;;;33.08;29.74;99087.16;5033985;28;816;-54
2023/06/10 08:23:44;;;;;;;;;;;;;;;32.26;29.83;99090.28;5033898;28;1940;-53
2023/06/10 08:26:10;;;;;;;;;;;;;;;32.15;30.65;99091.41;5033898;28;805;-53
2023/06/10 08:28:37;;;;;;;;;;;;;;;32.25;30.68;99097.34;5033961;28;816;-52
2023/06/10 08:31:04;;;;;;;;;;;;;;;31.98;31.37;99096.91;5033766;28;820;-53
2023/06/10 08:33:30;;;;;;;;;;;;;;;32.93;31.32;99090.78;5033749;28;872;-53
2023/06/10 08:35:57;;;;;;;;;;;;;;;33.74;29.68;99075.78;5033785;28;835;-52
2023/06/10 08:38:23;;;;;;;;;;;;;;;33.54;29.40;99078.34;5033957;28;836;-53
2023/06/10 08:40:54;;;;;;;;;;;;;;;33.32;29.93;99085.69;5033996;28;879;-53
2023/06/10 08:43:20;;;;;;;;;;;;;;;33.68;29.33;99096.06;5032441;28;898;-53
2023/06/10 08:45:48;;;;;;;;;;;;;;;34.22;29.24;99075.63;5033604;28;1886;-51
2023/06/10 08:48:16;;;;;;;;;;;;;;;34.83;28.17;99082.91;5033539;28;848;-54
2023/06/10 08:50:43;;;;;;;;;;;;;;;34.19;28.61;99081.78;5033478;28;859;-54
2023/06/10 08:53:14;;;;;;;;;;;;;;;34.21;28.95;99084.84;5033415;28;824;-54
2023/06/10 08:55:44;;;;;;;;;;;;;;;34.14;29.11;99074.91;5032794;28;848;-54
2023/06/10 08:58:13;;;;;;;;;;;;;;;34.62;29.29;99074.69;5033054;28;891;-55
2023/06/10 09:00:39;;;;;;;;;;;;;;;34.06;29.46;99069.25;5033260;28;1232;-54
2023/06/10 09:03:08;;;;;;;;;;;;;;;33.62;30.05;99072.59;5033290;28;816;-52
2023/06/10 09:05:36;;;;;;;;;;;;;;;33.77;30.12;99066.00;5033650;28;1961;-51
2023/06/10 09:08:02;;;;;;;;;;;;;;;33.92;30.42;99070.88;5033714;28;764;-52
2023/06/10 09:10:29;;;;;;;;;;;;;;;33.63;30.64;99073.34;5033234;28;926;-53
2023/06/10 09:12:55;;;;;;;;;;;;;;;33.60;30.24;99066.69;5033020;28;1432;-52
2023/06/10 09:15:22;;;;;;;;;;;;;;;33.67;31.14;99059.38;5033034;28;816;-49
2023/06/10 09:17:48;;;;;;;;;;;;;;;34.30;30.62;99061.22;5032871;28;796;-53
2023/06/10 09:20:15;;;;;;;;;;;;;;;32.94;31.63;99062.91;5032870;28;868;-53
2023/06/10 09:22:42;;;;;;;;;;;;;;;31.90;33.07;99060.53;5032849;28;855;-54
2023/06/10 09:25:12;;;;;;;;;;;;;;;30.90;34.84;99068.00;5032852;28;1894;-53
2023/06/10 09:27:56;;;;;;;;;;;;;;;30.77;35.74;99066.00;5033014;28;820;-55
2023/06/10 09:30:27;;;;;;;;;;;;;;;32.23;34.04;99065.72;5032710;28;902;-53
2023/06/10 09:32:56;;;;;;;;;;;;;;;32.98;32.46;99063.28;5032874;28;852;-54
2023/06/10 09:35:25;;;;;;;;;;;;;;;32.83;32.63;99063.34;5032596;28;976;-54
2023/06/10 09:37:57;;;;;;;;;;;;;;;31.54;33.31;99060.66;5032828;28;927;-54
2023/06/10 10:11:26;;;;;;;;;;;;;;;31.25;33.94;99051.41;5613027;22;2568;-50
2023/06/10 10:13:53;;;;;;;;;;;;;;;31.24;32.50;99049.84;5031932;28;870;-49
2023/06/10 10:16:40;;;;;;;;;;;;;;;31.43;31.76;99047.50;5032242;28;847;-50
2023/06/10 10:19:25;;;;;;;;;;;;;;;31.89;31.43;99038.22;5031628;28;1076;-50
2023/06/10 10:21:57;;;;;;;;;;;;;;;31.83;30.97;99044.13;5032182;28;816;-51
2023/06/10 10:24:30;;;;;;;;;;;;;;;32.00;31.04;99040.72;5031717;28;1917;-53
2023/06/10 10:26:58;;;;;;;;;;;;;;;32.49;30.78;99048.13;5032001;28;871;-51
2023/06/10 10:29:30;;;;;;;;;;;;;;;31.94;31.23;99037.28;5032035;28;803;-52
2023/06/10 10:32:00;;;;;;;;;;;;;;;32.00;31.39;99037.13;5031847;28;902;-51
2023/06/10 10:34:45;;;;;;;;;;;;;;;32.24;30.77;99033.69;5031603;28;941;-51
2023/06/10 10:40:15;;;;;;;;;;;;;;;33.51;29.77;99033.66;5031788;28;665;-55
2023/06/10 10:42:42;;;;;;;;;;;;;;;33.05;30.02;99028.19;5031537;28;878;-54
2023/06/10 10:45:09;;;;;;;;;;;;;;;31.88;31.05;99034.63;5032079;28;1945;-55
2023/06/10 10:47:37;;;;;;;;;;;;;;;31.64;31.68;99032.28;5031774;28;819;-54
2023/06/10 10:50:13;;;;;;;;;;;;;;;32.09;31.17;99036.53;5031615;28;908;-53
2023/06/10 10:52:55;;;;;;;;;;;;;;;31.78;31.72;99033.66;5031535;28;792;-48
2023/06/10 10:55:25;;;;;;;;;;;;;;;32.61;30.43;99027.75;5031442;28;863;-50
2023/06/10 10:58:18;;;;;;;;;;;;;;;33.38;29.61;99031.09;5030130;28;923;-52
2023/06/10 11:00:45;;;;;;;;;;;;;;;34.60;28.03;99028.59;5026066;28;1447;-52
2023/06/10 11:03:20;;;;;;;;;;;;;;;34.64;27.52;99031.09;5031345;28;795;-54
2023/06/10 11:05:48;;;;;;;;;;;;;;;34.44;28.39;99019.41;5031230;28;1890;-54
2023/06/10 11:08:33;;;;;;;;;;;;;;;33.28;28.96;99025.22;5031413;28;906;-55
2023/06/10 11:11:00;;;;;;;;;;;;;;;32.25;29.45;99026.63;5031054;28;1238;-53
2023/06/10 11:13:27;;;;;;;;;;;;;;;32.04;29.69;99018.25;5031249;28;902;-55
2023/06/10 11:15:57;;;;;;;;;;;;;;;32.50;29.75;99023.94;5031275;28;851;-55
2023/06/10 11:18:27;;;;;;;;;;;;;;;33.15;29.19;99017.63;5031317;28;915;-55
2023/06/10 11:20:55;;;;;;;;;;;;;;;33.61;27.84;99022.38;5034583;28;855;-54
2023/06/10 11:23:28;;;;;;;;;;;;;;;34.16;27.13;99015.66;5035130;28;820;-54
2023/06/10 11:26:11;;;;;;;;;;;;;;;34.87;26.38;99010.75;5035226;28;1967;-53
2023/06/10 11:29:02;;;;;;;;;;;;;;;35.31;25.21;99001.38;5034947;28;1257;-54
2023/06/10 11:31:29;;;;;;;;;;;;;;;35.71;24.77;98998.13;5025101;28;1009;-51
2023/06/10 11:33:56;;;;;;;;;;;;;;;35.87;23.94;98989.25;5034935;28;855;-53
2023/06/10 11:36:23;;;;;;;;;;;;;;;35.87;23.88;98981.38;5034793;28;871;-55
2023/06/10 11:38:53;;;;;;;;;;;;;;;35.78;23.81;98996.47;5034855;28;812;-52
2023/06/10 11:41:20;;;;;;;;;;;;;;;36.17;23.51;98990.88;5034645;28;895;-52
2023/06/10 11:43:47;;;;;;;;;;;;;;;36.13;23.25;98982.69;5034657;28;1894;-53
2023/06/10 11:46:14;;;;;;;;;;;;;;;35.40;23.89;98986.31;5035014;28;863;-53
2023/06/10 11:48:55;;;;;;;;;;;;;;;35.45;23.42;98981.66;5034662;28;902;-53
2023/06/10 11:51:21;;;;;;;;;;;;;;;35.88;23.48;98976.38;5034642;28;808;-53
2023/06/10 11:53:48;;;;;;;;;;;;;;;36.46;22.85;98973.63;5034591;28;827;-53
2023/06/10 11:56:25;;;;;;;;;;;;;;;36.26;22.97;98975.75;5034464;28;852;-51
2023/06/10 11:59:07;;;;;;;;;;;;;;;35.92;23.48;98973.84;5034391;28;919;-55
2023/06/10 12:01:34;;;;;;;;;;;;;;;36.49;23.37;98983.16;5034342;28;868;-53
2023/06/10 12:04:05;;;;;;;;;;;;;;;37.38;22.41;98980.38;5034344;28;1981;-50
2023/06/10 12:06:46;;;;;;;;;;;;;;;37.55;21.62;98978.63;5034320;28;811;-54
2023/06/10 12:09:15;;;;;;;;;;;;;;;35.72;22.95;98973.00;5034268;28;854;-54
2023/06/10 12:11:43;;;;;;;;;;;;;;;33.94;24.58;98980.09;5033961;28;1242;-54
2023/06/10 12:14:10;;;;;;;;;;;;;;;33.36;25.40;98962.19;5034181;28;891;-54
2023/06/10 12:16:37;;;;;;;;;;;;;;;33.34;25.62;98956.28;5034178;28;820;-54
2023/06/10 12:19:05;;;;;;;;;;;;;;;33.03;26.57;98961.38;5034126;28;859;-53
2023/06/10 12:21:32;;;;;;;;;;;;;;;33.89;25.38;98958.16;5034054;28;861;-54
2023/06/10 12:24:06;;;;;;;;;;;;;;;35.25;24.46;98954.94;5033893;28;1975;-53
2023/06/10 12:26:36;;;;;;;;;;;;;;;36.49;23.16;98946.53;5033913;28;871;-54
2023/06/10 12:29:24;;;;;;;;;;;;;;;38.02;22.51;98952.31;5033860;28;851;-54
2023/06/10 12:32:05;;;;;;;;;;;;;;;38.71;21.94;98942.56;5033762;28;934;-55
2023/06/10 12:34:34;;;;;;;;;;;;;;;38.52;22.00;98942.75;5033795;28;835;-55
2023/06/10 12:37:01;;;;;;;;;;;;;;;36.78;23.14;98948.66;5033787;28;799;-55
2023/06/10 12:39:28;;;;;;;;;;;;;;;37.61;23.08;98946.66;5033671;28;804;-55
2023/06/10 12:41:55;;;;;;;;;;;;;;;38.14;21.44;98948.16;5033648;28;923;-56
2023/06/10 12:44:31;;;;;;;;;;;;;;;37.72;22.20;98943.09;5032243;28;1890;-55
2023/06/10 12:46:58;;;;;;;;;;;;;;;38.12;21.55;98935.75;5033743;28;856;-55
2023/06/10 12:49:26;;;;;;;;;;;;;;;37.43;22.39;98938.19;5034298;28;840;-55
2023/06/10 12:51:53;;;;;;;;;;;;;;;37.48;22.33;98930.59;5033682;28;1121;-56
2023/06/10 12:54:20;;;;;;;;;;;;;;;36.35;22.50;98939.72;5033686;28;894;-55
2023/06/10 12:56:47;;;;;;;;;;;;;;;36.13;23.23;98938.78;5033644;28;867;-53
2023/06/10 12:59:14;;;;;;;;;;;;;;;36.54;22.61;98933.19;5033562;28;828;-55
2023/06/10 13:01:41;;;;;;;;;;;;;;;36.89;22.35;98930.75;5033542;28;836;-55
2023/06/10 13:04:07;;;;;;;;;;;;;;;37.70;22.56;98931.41;5033393;28;1890;-55
2023/06/10 13:06:36;;;;;;;;;;;;;;;37.90;22.54;98932.81;5033445;28;812;-55
2023/06/10 13:09:03;;;;;;;;;;;;;;;37.46;21.74;98934.09;5032969;28;923;-55
2023/06/10 13:11:29;;;;;;;;;;;;;;;36.86;22.15;98931.97;5033022;28;1286;-55
2023/06/10 13:13:56;;;;;;;;;;;;;;;36.37;22.97;98931.25;5033211;28;855;-54
2023/06/10 13:16:23;;;;;;;;;;;;;;;36.18;23.81;98935.59;5033153;28;845;-55
2023/06/10 13:18:49;;;;;;;;;;;;;;;35.76;23.88;98936.72;5033239;28;816;-55
2023/06/10 13:21:16;;;;;;;;;;;;;;;35.07;24.62;98937.75;5033225;28;992;-54
2023/06/10 13:23:44;;;;;;;;;;;;;;;34.75;25.08;98928.03;5033226;28;1979;-55
2023/06/10 13:26:11;;;;;;;;;;;;;;;34.82;25.03;98928.53;5033253;28;871;-55
2023/06/10 13:28:38;;;;;;;;;;;;;;;34.13;25.51;98916.50;5033353;28;902;-55
2023/06/10 13:31:04;;;;;;;;;;;;;;;33.91;26.06;98943.25;5032939;28;859;-54
2023/06/10 13:33:31;;;;;;;;;;;;;;;33.79;26.17;98937.25;5032987;28;875;-53
2023/06/10 13:35:58;;;;;;;;;;;;;;;32.99;26.87;98932.41;5032889;28;820;-54
2023/06/10 13:38:25;;;;;;;;;;;;;;;32.33;28.10;98927.31;5032926;28;906;-54
2023/06/10 13:40:51;;;;;;;;;;;;;;;32.04;28.52;98938.25;5033068;28;800;-54
2023/06/10 13:43:18;;;;;;;;;;;;;;;33.10;27.27;98924.16;5032094;28;832;-55
2023/06/10 13:45:45;;;;;;;;;;;;;;;34.09;26.68;98929.69;5033117;28;1882;-55
2023/06/10 13:48:12;;;;;;;;;;;;;;;34.61;26.31;98923.22;5032556;28;824;-55
2023/06/10 13:50:38;;;;;;;;;;;;;;;34.45;26.42;98928.38;5032783;28;804;-55